Lake Lure, North Carolina
Current Conditions -  °F | °C
As of 8:35 AM on Saturday 25 Oct 2014 (Local Time) from KFQD Reporting Station
Clear Clear  
Wind Chill: 37°   Ceiling: Unl
Heat Index: 41°   Visibility: 10mi
Dew Point: 38°   Wind: 6mph
Humidity: 91%   Direction: 300°WNW
Pressure: 30.06"   Gusts: NA
Location:  35.43°N, 82.2°W
Report Text: KFQD 251235Z AUTO 30005KT 10SM CLR 05/04 A3006 RMK AO2 T00500036
Loading
Personal Weather Stations






























Interactive Weather Map New forecast layout! Learn more

10-Day Weather Forecast

Advertisements
Track Severe Weather on mobile